sensor_id;sensor_type;location;lat;lon;timestamp;P1;durP1;ratioP1;P2;durP2;ratioP2
3563;SDS011;1796;52.388;13.096;2023-04-24T00:00:13;6.70;;;6.10;;
3563;SDS011;1796;52.388;13.096;2023-04-24T00:02:42;6.30;;;5.77;;
3563;SDS011;1796;52.388;13.096;2023-04-24T00:05:12;12.13;;;6.20;;
3563;SDS011;1796;52.388;13.096;2023-04-24T00:07:39;12.87;;;6.00;;
3563;SDS011;1796;52.388;13.096;2023-04-24T00:10:07;7.13;;;6.43;;
3563;SDS011;1796;52.388;13.096;2023-04-24T00:12:34;6.67;;;6.10;;
3563;SDS011;1796;52.388;13.096;2023-04-24T00:15:02;6.40;;;5.77;;
3563;SDS011;1796;52.388;13.096;2023-04-24T00:17:31;7.07;;;6.40;;
3563;SDS011;1796;52.388;13.096;2023-04-24T00:19:58;7.30;;;5.90;;
3563;SDS011;1796;52.388;13.096;2023-04-24T00:22:27;9.57;;;6.07;;
3563;SDS011;1796;52.388;13.096;2023-04-24T00:24:54;11.07;;;6.87;;
3563;SDS011;1796;52.388;13.096;2023-04-24T00:27:21;6.47;;;5.90;;
3563;SDS011;1796;52.388;13.096;2023-04-24T00:29:48;6.37;;;5.77;;
3563;SDS011;1796;52.388;13.096;2023-04-24T00:32:15;6.30;;;5.73;;
3563;SDS011;1796;52.388;13.096;2023-04-24T00:34:44;8.23;;;5.70;;
3563;SDS011;1796;52.388;13.096;2023-04-24T00:37:11;7.07;;;6.47;;
3563;SDS011;1796;52.388;13.096;2023-04-24T00:39:37;9.93;;;6.63;;
3563;SDS011;1796;52.388;13.096;2023-04-24T00:42:04;6.27;;;5.70;;
3563;SDS011;1796;52.388;13.096;2023-04-24T00:44:31;7.20;;;5.70;;
3563;SDS011;1796;52.388;13.096;2023-04-24T00:46:59;9.30;;;6.43;;
3563;SDS011;1796;52.388;13.096;2023-04-24T00:49:27;7.10;;;6.50;;
3563;SDS011;1796;52.388;13.096;2023-04-24T00:51:56;5.57;;;5.17;;
3563;SDS011;1796;52.388;13.096;2023-04-24T00:54:24;5.70;;;5.30;;
3563;SDS011;1796;52.388;13.096;2023-04-24T00:56:51;6.40;;;5.90;;
3563;SDS011;1796;52.388;13.096;2023-04-24T00:59:18;6.30;;;5.80;;
3563;SDS011;1796;52.388;13.096;2023-04-24T01:01:45;6.50;;;5.83;;
3563;SDS011;1796;52.388;13.096;2023-04-24T01:04:12;6.37;;;5.77;;
3563;SDS011;1796;52.388;13.096;2023-04-24T01:06:40;11.63;;;5.47;;
3563;SDS011;1796;52.388;13.096;2023-04-24T01:09:11;6.70;;;6.10;;
3563;SDS011;1796;52.388;13.096;2023-04-24T01:11:39;8.13;;;5.80;;
3563;SDS011;1796;52.388;13.096;2023-04-24T01:14:08;6.97;;;6.37;;
3563;SDS011;1796;52.388;13.096;2023-04-24T01:16:35;6.40;;;5.80;;
3563;SDS011;1796;52.388;13.096;2023-04-24T01:19:03;7.33;;;6.60;;
3563;SDS011;1796;52.388;13.096;2023-04-24T01:21:30;6.50;;;6.00;;
3563;SDS011;1796;52.388;13.096;2023-04-24T01:24:03;6.87;;;6.27;;
3563;SDS011;1796;52.388;13.096;2023-04-24T01:26:30;6.17;;;5.53;;
3563;SDS011;1796;52.388;13.096;2023-04-24T01:28:57;6.23;;;5.73;;
3563;SDS011;1796;52.388;13.096;2023-04-24T01:31:24;6.40;;;5.90;;
3563;SDS011;1796;52.388;13.096;2023-04-24T01:33:51;6.40;;;5.80;;
3563;SDS011;1796;52.388;13.096;2023-04-24T01:36:18;7.10;;;6.40;;
3563;SDS011;1796;52.388;13.096;2023-04-24T01:38:46;7.20;;;6.50;;
3563;SDS011;1796;52.388;13.096;2023-04-24T01:41:14;7.43;;;6.00;;
3563;SDS011;1796;52.388;13.096;2023-04-24T01:43:41;6.87;;;6.17;;
3563;SDS011;1796;52.388;13.096;2023-04-24T01:46:08;10.60;;;6.93;;
3563;SDS011;1796;52.388;13.096;2023-04-24T01:48:35;7.23;;;6.53;;
3563;SDS011;1796;52.388;13.096;2023-04-24T01:51:02;7.90;;;7.20;;
3563;SDS011;1796;52.388;13.096;2023-04-24T01:53:29;7.00;;;6.17;;
3563;SDS011;1796;52.388;13.096;2023-04-24T01:55:56;7.10;;;6.50;;
3563;SDS011;1796;52.388;13.096;2023-04-24T01:58:25;7.60;;;7.00;;
3563;SDS011;1796;52.388;13.096;2023-04-24T02:00:52;13.70;;;9.00;;
3563;SDS011;1796;52.388;13.096;2023-04-24T02:03:21;9.17;;;6.80;;
3563;SDS011;1796;52.388;13.096;2023-04-24T02:05:48;8.27;;;6.80;;
3563;SDS011;1796;52.388;13.096;2023-04-24T02:08:15;7.50;;;6.80;;
3563;SDS011;1796;52.388;13.096;2023-04-24T02:10:42;6.70;;;6.10;;
3563;SDS011;1796;52.388;13.096;2023-04-24T02:13:09;8.57;;;6.70;;
3563;SDS011;1796;52.388;13.096;2023-04-24T02:15:37;7.20;;;6.60;;
3563;SDS011;1796;52.388;13.096;2023-04-24T02:18:04;7.30;;;6.50;;
3563;SDS011;1796;52.388;13.096;2023-04-24T02:20:32;7.30;;;6.70;;
3563;SDS011;1796;52.388;13.096;2023-04-24T02:23:01;6.80;;;6.30;;
3563;SDS011;1796;52.388;13.096;2023-04-24T02:25:28;7.70;;;6.97;;
3563;SDS011;1796;52.388;13.096;2023-04-24T02:27:55;7.73;;;6.77;;
3563;SDS011;1796;52.388;13.096;2023-04-24T02:30:22;6.97;;;6.30;;
3563;SDS011;1796;52.388;13.096;2023-04-24T02:32:50;7.23;;;6.60;;
3563;SDS011;1796;52.388;13.096;2023-04-24T02:35:17;8.43;;;7.40;;
3563;SDS011;1796;52.388;13.096;2023-04-24T02:37:44;9.67;;;7.30;;
3563;SDS011;1796;52.388;13.096;2023-04-24T02:40:11;6.80;;;6.13;;
3563;SDS011;1796;52.388;13.096;2023-04-24T02:42:38;8.33;;;6.67;;
3563;SDS011;1796;52.388;13.096;2023-04-24T02:45:05;7.27;;;6.60;;
3563;SDS011;1796;52.388;13.096;2023-04-24T02:47:33;7.37;;;6.67;;
3563;SDS011;1796;52.388;13.096;2023-04-24T02:50:01;7.40;;;6.70;;
3563;SDS011;1796;52.388;13.096;2023-04-24T02:52:28;7.50;;;6.90;;
3563;SDS011;1796;52.388;13.096;2023-04-24T02:54:55;7.53;;;6.93;;
3563;SDS011;1796;52.388;13.096;2023-04-24T02:57:22;19.33;;;7.07;;
3563;SDS011;1796;52.388;13.096;2023-04-24T02:59:48;15.17;;;7.77;;
3563;SDS011;1796;52.388;13.096;2023-04-24T03:02:15;7.23;;;6.53;;
3563;SDS011;1796;52.388;13.096;2023-04-24T03:04:42;7.80;;;7.10;;
3563;SDS011;1796;52.388;13.096;2023-04-24T03:07:10;7.40;;;6.70;;
3563;SDS011;1796;52.388;13.096;2023-04-24T03:09:37;8.00;;;7.20;;
3563;SDS011;1796;52.388;13.096;2023-04-24T03:12:04;7.90;;;7.10;;
3563;SDS011;1796;52.388;13.096;2023-04-24T03:14:31;7.30;;;6.60;;
3563;SDS011;1796;52.388;13.096;2023-04-24T03:16:58;7.60;;;6.80;;
3563;SDS011;1796;52.388;13.096;2023-04-24T03:19:25;7.10;;;6.50;;
3563;SDS011;1796;52.388;13.096;2023-04-24T03:21:52;6.97;;;6.37;;
3563;SDS011;1796;52.388;13.096;2023-04-24T03:24:20;14.43;;;7.53;;
3563;SDS011;1796;52.388;13.096;2023-04-24T03:26:47;7.90;;;7.20;;
3563;SDS011;1796;52.388;13.096;2023-04-24T03:29:14;7.83;;;6.90;;
3563;SDS011;1796;52.388;13.096;2023-04-24T03:31:41;7.67;;;7.00;;
3563;SDS011;1796;52.388;13.096;2023-04-24T03:34:08;34.17;;;11.77;;
3563;SDS011;1796;52.388;13.096;2023-04-24T03:36:35;23.57;;;10.13;;
3563;SDS011;1796;52.388;13.096;2023-04-24T03:39:02;14.20;;;7.60;;
3563;SDS011;1796;52.388;13.096;2023-04-24T03:41:30;8.30;;;6.60;;
3563;SDS011;1796;52.388;13.096;2023-04-24T03:43:57;7.57;;;6.87;;
3563;SDS011;1796;52.388;13.096;2023-04-24T03:46:24;10.37;;;6.40;;
3563;SDS011;1796;52.388;13.096;2023-04-24T03:48:51;8.27;;;6.70;;
3563;SDS011;1796;52.388;13.096;2023-04-24T03:51:17;7.70;;;6.40;;
3563;SDS011;1796;52.388;13.096;2023-04-24T03:53:44;6.97;;;6.23;;
3563;SDS011;1796;52.388;13.096;2023-04-24T03:56:11;7.20;;;6.50;;
3563;SDS011;1796;52.388;13.096;2023-04-24T03:58:39;7.33;;;6.73;;
3563;SDS011;1796;52.388;13.096;2023-04-24T04:01:06;8.50;;;7.20;;
3563;SDS011;1796;52.388;13.096;2023-04-24T04:03:33;8.47;;;7.57;;
3563;SDS011;1796;52.388;13.096;2023-04-24T04:06:00;8.57;;;7.73;;
3563;SDS011;1796;52.388;13.096;2023-04-24T04:08:27;8.10;;;7.37;;
3563;SDS011;1796;52.388;13.096;2023-04-24T04:10:54;12.40;;;6.67;;
3563;SDS011;1796;52.388;13.096;2023-04-24T04:13:20;7.53;;;6.70;;
3563;SDS011;1796;52.388;13.096;2023-04-24T04:15:49;8.43;;;7.10;;
3563;SDS011;1796;52.388;13.096;2023-04-24T04:18:16;11.73;;;8.13;;
3563;SDS011;1796;52.388;13.096;2023-04-24T04:20:42;7.90;;;6.80;;
3563;SDS011;1796;52.388;13.096;2023-04-24T04:23:09;8.50;;;7.60;;
3563;SDS011;1796;52.388;13.096;2023-04-24T04:25:36;10.57;;;8.00;;
3563;SDS011;1796;52.388;13.096;2023-04-24T04:28:03;8.67;;;7.87;;
3563;SDS011;1796;52.388;13.096;2023-04-24T04:30:30;7.57;;;6.87;;
3563;SDS011;1796;52.388;13.096;2023-04-24T04:32:58;10.30;;;8.80;;
3563;SDS011;1796;52.388;13.096;2023-04-24T04:35:26;8.33;;;7.53;;
3563;SDS011;1796;52.388;13.096;2023-04-24T04:37:53;8.47;;;7.70;;
3563;SDS011;1796;52.388;13.096;2023-04-24T04:40:21;9.37;;;8.33;;
3563;SDS011;1796;52.388;13.096;2023-04-24T04:42:48;17.23;;;7.73;;
3563;SDS011;1796;52.388;13.096;2023-04-24T04:45:18;12.97;;;6.93;;
3563;SDS011;1796;52.388;13.096;2023-04-24T04:47:45;8.13;;;7.33;;
3563;SDS011;1796;52.388;13.096;2023-04-24T04:50:14;7.47;;;6.77;;
3563;SDS011;1796;52.388;13.096;2023-04-24T04:52:41;12.40;;;6.90;;
3563;SDS011;1796;52.388;13.096;2023-04-24T04:55:08;7.70;;;6.90;;
3563;SDS011;1796;52.388;13.096;2023-04-24T04:57:36;8.17;;;6.30;;
3563;SDS011;1796;52.388;13.096;2023-04-24T05:00:03;9.27;;;6.40;;
3563;SDS011;1796;52.388;13.096;2023-04-24T05:02:32;8.33;;;5.47;;
3563;SDS011;1796;52.388;13.096;2023-04-24T05:04:59;11.80;;;5.50;;
3563;SDS011;1796;52.388;13.096;2023-04-24T05:07:27;4.77;;;4.40;;
3563;SDS011;1796;52.388;13.096;2023-04-24T05:09:54;8.33;;;4.67;;
3563;SDS011;1796;52.388;13.096;2023-04-24T05:12:20;5.23;;;4.73;;
3563;SDS011;1796;52.388;13.096;2023-04-24T05:14:47;6.10;;;4.10;;
3563;SDS011;1796;52.388;13.096;2023-04-24T05:17:15;3.67;;;3.43;;
3563;SDS011;1796;52.388;13.096;2023-04-24T05:19:42;8.13;;;2.90;;
3563;SDS011;1796;52.388;13.096;2023-04-24T05:22:08;2.60;;;2.50;;
3563;SDS011;1796;52.388;13.096;2023-04-24T05:24:37;3.20;;;2.90;;
3563;SDS011;1796;52.388;13.096;2023-04-24T05:27:04;4.40;;;2.70;;
3563;SDS011;1796;52.388;13.096;2023-04-24T05:29:32;5.60;;;4.10;;
3563;SDS011;1796;52.388;13.096;2023-04-24T05:31:59;3.53;;;2.60;;
3563;SDS011;1796;52.388;13.096;2023-04-24T05:34:26;18.13;;;3.23;;
3563;SDS011;1796;52.388;13.096;2023-04-24T05:36:53;2.17;;;2.07;;
3563;SDS011;1796;52.388;13.096;2023-04-24T05:39:20;2.40;;;1.97;;
3563;SDS011;1796;52.388;13.096;2023-04-24T05:41:48;4.13;;;2.40;;
3563;SDS011;1796;52.388;13.096;2023-04-24T05:44:15;5.20;;;2.10;;
3563;SDS011;1796;52.388;13.096;2023-04-24T05:46:42;2.00;;;1.90;;
3563;SDS011;1796;52.388;13.096;2023-04-24T05:49:09;5.30;;;2.20;;
3563;SDS011;1796;52.388;13.096;2023-04-24T05:51:36;4.93;;;1.67;;
3563;SDS011;1796;52.388;13.096;2023-04-24T05:54:04;2.43;;;1.93;;
3563;SDS011;1796;52.388;13.096;2023-04-24T05:56:31;1.93;;;1.57;;
3563;SDS011;1796;52.388;13.096;2023-04-24T05:58:59;1.63;;;1.63;;
3563;SDS011;1796;52.388;13.096;2023-04-24T06:01:26;1.43;;;1.43;;
3563;SDS011;1796;52.388;13.096;2023-04-24T06:03:53;1.70;;;1.60;;
3563;SDS011;1796;52.388;13.096;2023-04-24T06:06:20;3.10;;;1.67;;
3563;SDS011;1796;52.388;13.096;2023-04-24T06:08:47;3.10;;;1.60;;
3563;SDS011;1796;52.388;13.096;2023-04-24T06:11:13;1.40;;;1.30;;
3563;SDS011;1796;52.388;13.096;2023-04-24T06:13:40;1.47;;;1.10;;
3563;SDS011;1796;52.388;13.096;2023-04-24T06:16:10;1.77;;;1.67;;
3563;SDS011;1796;52.388;13.096;2023-04-24T06:18:37;5.20;;;1.60;;
3563;SDS011;1796;52.388;13.096;2023-04-24T06:21:04;1.80;;;1.67;;
3563;SDS011;1796;52.388;13.096;2023-04-24T06:23:31;1.20;;;1.10;;
3563;SDS011;1796;52.388;13.096;2023-04-24T06:25:58;1.30;;;1.20;;
3563;SDS011;1796;52.388;13.096;2023-04-24T06:28:25;1.20;;;1.10;;
3563;SDS011;1796;52.388;13.096;2023-04-24T06:30:52;2.43;;;1.70;;
3563;SDS011;1796;52.388;13.096;2023-04-24T06:33:21;5.07;;;4.67;;
3563;SDS011;1796;52.388;13.096;2023-04-24T06:35:48;1.50;;;0.93;;
3563;SDS011;1796;52.388;13.096;2023-04-24T06:38:14;8.17;;;1.33;;
3563;SDS011;1796;52.388;13.096;2023-04-24T06:40:42;2.20;;;1.33;;
3563;SDS011;1796;52.388;13.096;2023-04-24T06:43:08;1.23;;;1.23;;
3563;SDS011;1796;52.388;13.096;2023-04-24T06:45:36;3.03;;;1.20;;
3563;SDS011;1796;52.388;13.096;2023-04-24T06:48:04;2.60;;;1.20;;
3563;SDS011;1796;52.388;13.096;2023-04-24T06:50:33;5.30;;;1.00;;
3563;SDS011;1796;52.388;13.096;2023-04-24T06:53:00;2.10;;;1.20;;
3563;SDS011;1796;52.388;13.096;2023-04-24T06:55:27;2.30;;;1.00;;
3563;SDS011;1796;52.388;13.096;2023-04-24T06:57:54;1.77;;;1.07;;
3563;SDS011;1796;52.388;13.096;2023-04-24T07:00:20;3.80;;;0.90;;
3563;SDS011;1796;52.388;13.096;2023-04-24T07:02:49;1.63;;;0.90;;
3563;SDS011;1796;52.388;13.096;2023-04-24T07:05:16;1.90;;;0.80;;
3563;SDS011;1796;52.388;13.096;2023-04-24T07:07:46;1.73;;;1.40;;
3563;SDS011;1796;52.388;13.096;2023-04-24T07:10:14;3.23;;;1.23;;
3563;SDS011;1796;52.388;13.096;2023-04-24T07:12:41;1.00;;;1.00;;
3563;SDS011;1796;52.388;13.096;2023-04-24T07:15:08;0.80;;;0.80;;
3563;SDS011;1796;52.388;13.096;2023-04-24T07:17:36;3.13;;;1.00;;
3563;SDS011;1796;52.388;13.096;2023-04-24T07:20:08;1.00;;;0.90;;
3563;SDS011;1796;52.388;13.096;2023-04-24T07:22:35;1.23;;;1.13;;
3563;SDS011;1796;52.388;13.096;2023-04-24T07:25:05;1.17;;;1.00;;
3563;SDS011;1796;52.388;13.096;2023-04-24T07:27:33;1.87;;;1.00;;
3563;SDS011;1796;52.388;13.096;2023-04-24T07:30:01;1.20;;;1.10;;
3563;SDS011;1796;52.388;13.096;2023-04-24T07:32:29;1.00;;;0.77;;
3563;SDS011;1796;52.388;13.096;2023-04-24T07:34:56;3.97;;;0.87;;
3563;SDS011;1796;52.388;13.096;2023-04-24T07:37:23;1.10;;;0.70;;
3563;SDS011;1796;52.388;13.096;2023-04-24T07:39:49;0.97;;;0.97;;
3563;SDS011;1796;52.388;13.096;2023-04-24T07:42:18;0.90;;;0.90;;
3563;SDS011;1796;52.388;13.096;2023-04-24T07:44:45;3.23;;;0.80;;
3563;SDS011;1796;52.388;13.096;2023-04-24T07:47:12;1.17;;;0.93;;
3563;SDS011;1796;52.388;13.096;2023-04-24T07:49:40;2.60;;;1.20;;
3563;SDS011;1796;52.388;13.096;2023-04-24T07:52:07;0.90;;;0.90;;
3563;SDS011;1796;52.388;13.096;2023-04-24T07:54:34;5.50;;;1.20;;
3563;SDS011;1796;52.388;13.096;2023-04-24T07:57:02;2.30;;;0.90;;
3563;SDS011;1796;52.388;13.096;2023-04-24T07:59:30;3.27;;;0.97;;
3563;SDS011;1796;52.388;13.096;2023-04-24T08:01:57;0.87;;;0.87;;
3563;SDS011;1796;52.388;13.096;2023-04-24T08:04:26;0.70;;;0.70;;
3563;SDS011;1796;52.388;13.096;2023-04-24T08:06:53;1.13;;;0.80;;
3563;SDS011;1796;52.388;13.096;2023-04-24T08:09:20;0.80;;;0.80;;
3563;SDS011;1796;52.388;13.096;2023-04-24T08:11:46;3.37;;;1.10;;
3563;SDS011;1796;52.388;13.096;2023-04-24T08:14:13;1.20;;;1.10;;
3563;SDS011;1796;52.388;13.096;2023-04-24T08:16:42;0.97;;;0.70;;
3563;SDS011;1796;52.388;13.096;2023-04-24T08:19:09;0.97;;;0.97;;
3563;SDS011;1796;52.388;13.096;2023-04-24T08:21:36;0.73;;;0.70;;
3563;SDS011;1796;52.388;13.096;2023-04-24T08:24:02;1.60;;;0.90;;
3563;SDS011;1796;52.388;13.096;2023-04-24T08:26:32;0.77;;;0.77;;
3563;SDS011;1796;52.388;13.096;2023-04-24T08:28:59;2.03;;;1.00;;
3563;SDS011;1796;52.388;13.096;2023-04-24T08:31:26;5.60;;;0.90;;
3563;SDS011;1796;52.388;13.096;2023-04-24T08:33:54;3.13;;;1.00;;
3563;SDS011;1796;52.388;13.096;2023-04-24T08:36:21;0.97;;;0.97;;
3563;SDS011;1796;52.388;13.096;2023-04-24T08:38:48;4.33;;;1.27;;
3563;SDS011;1796;52.388;13.096;2023-04-24T08:41:15;1.00;;;1.00;;
3563;SDS011;1796;52.388;13.096;2023-04-24T08:43:44;1.13;;;1.13;;
3563;SDS011;1796;52.388;13.096;2023-04-24T08:46:12;1.03;;;1.03;;
3563;SDS011;1796;52.388;13.096;2023-04-24T08:48:41;1.37;;;1.07;;
3563;SDS011;1796;52.388;13.096;2023-04-24T08:51:10;1.67;;;0.90;;
3563;SDS011;1796;52.388;13.096;2023-04-24T08:53:37;0.90;;;0.90;;
3563;SDS011;1796;52.388;13.096;2023-04-24T08:56:04;1.30;;;1.30;;
3563;SDS011;1796;52.388;13.096;2023-04-24T08:58:32;1.63;;;1.00;;
3563;SDS011;1796;52.388;13.096;2023-04-24T09:01:00;1.00;;;1.00;;
3563;SDS011;1796;52.388;13.096;2023-04-24T09:03:28;1.10;;;1.10;;
3563;SDS011;1796;52.388;13.096;2023-04-24T09:05:56;1.10;;;1.00;;
3563;SDS011;1796;52.388;13.096;2023-04-24T09:08:25;1.83;;;1.00;;
3563;SDS011;1796;52.388;13.096;2023-04-24T09:10:54;1.03;;;1.00;;
3563;SDS011;1796;52.388;13.096;2023-04-24T09:13:23;3.40;;;0.90;;
3563;SDS011;1796;52.388;13.096;2023-04-24T09:15:50;1.10;;;0.70;;
3563;SDS011;1796;52.388;13.096;2023-04-24T09:18:19;1.03;;;0.93;;
3563;SDS011;1796;52.388;13.096;2023-04-24T09:20:59;0.80;;;0.80;;
3563;SDS011;1796;52.388;13.096;2023-04-24T09:23:29;4.83;;;1.03;;
3563;SDS011;1796;52.388;13.096;2023-04-24T09:25:56;1.60;;;1.10;;
3563;SDS011;1796;52.388;13.096;2023-04-24T09:28:25;2.80;;;1.00;;
3563;SDS011;1796;52.388;13.096;2023-04-24T09:31:03;9.17;;;1.10;;
3563;SDS011;1796;52.388;13.096;2023-04-24T09:33:32;2.50;;;1.00;;
3563;SDS011;1796;52.388;13.096;2023-04-24T09:35:59;3.63;;;1.20;;
3563;SDS011;1796;52.388;13.096;2023-04-24T09:38:32;15.43;;;1.07;;
3563;SDS011;1796;52.388;13.096;2023-04-24T09:41:01;6.43;;;1.00;;
3563;SDS011;1796;52.388;13.096;2023-04-24T09:43:29;1.00;;;0.77;;
3563;SDS011;1796;52.388;13.096;2023-04-24T09:45:56;2.00;;;1.20;;
3563;SDS011;1796;52.388;13.096;2023-04-24T09:48:31;1.80;;;1.00;;
3563;SDS011;1796;52.388;13.096;2023-04-24T09:50:58;3.90;;;0.90;;
3563;SDS011;1796;52.388;13.096;2023-04-24T09:53:27;3.43;;;0.87;;
3563;SDS011;1796;52.388;13.096;2023-04-24T09:55:55;2.10;;;1.00;;
3563;SDS011;1796;52.388;13.096;2023-04-24T09:58:25;0.73;;;0.73;;
3563;SDS011;1796;52.388;13.096;2023-04-24T10:00:56;1.43;;;0.80;;
3563;SDS011;1796;52.388;13.096;2023-04-24T10:03:24;1.13;;;1.03;;
3563;SDS011;1796;52.388;13.096;2023-04-24T10:05:52;1.27;;;0.83;;
3563;SDS011;1796;52.388;13.096;2023-04-24T10:08:20;1.00;;;1.00;;
3563;SDS011;1796;52.388;13.096;2023-04-24T10:10:47;2.70;;;1.37;;
3563;SDS011;1796;52.388;13.096;2023-04-24T10:13:16;1.43;;;0.70;;
3563;SDS011;1796;52.388;13.096;2023-04-24T10:15:43;1.20;;;1.10;;
3563;SDS011;1796;52.388;13.096;2023-04-24T10:18:10;2.20;;;1.07;;
3563;SDS011;1796;52.388;13.096;2023-04-24T10:20:38;0.93;;;0.93;;
3563;SDS011;1796;52.388;13.096;2023-04-24T10:23:06;1.00;;;1.00;;
3563;SDS011;1796;52.388;13.096;2023-04-24T10:25:34;1.40;;;1.30;;
3563;SDS011;1796;52.388;13.096;2023-04-24T10:28:02;2.13;;;1.23;;
3563;SDS011;1796;52.388;13.096;2023-04-24T10:30:31;1.57;;;1.30;;
3563;SDS011;1796;52.388;13.096;2023-04-24T10:33:01;1.90;;;0.90;;
3563;SDS011;1796;52.388;13.096;2023-04-24T10:35:31;1.57;;;1.10;;
3563;SDS011;1796;52.388;13.096;2023-04-24T10:38:03;2.57;;;1.07;;
3563;SDS011;1796;52.388;13.096;2023-04-24T10:40:34;0.70;;;0.70;;
3563;SDS011;1796;52.388;13.096;2023-04-24T10:43:02;1.30;;;0.93;;
3563;SDS011;1796;52.388;13.096;2023-04-24T10:45:32;1.00;;;1.00;;
3563;SDS011;1796;52.388;13.096;2023-04-24T10:48:01;3.07;;;1.30;;
3563;SDS011;1796;52.388;13.096;2023-04-24T10:50:42;3.07;;;1.03;;
3563;SDS011;1796;52.388;13.096;2023-04-24T10:53:12;2.10;;;1.40;;
3563;SDS011;1796;52.388;13.096;2023-04-24T10:55:45;1.37;;;1.30;;
3563;SDS011;1796;52.388;13.096;2023-04-24T10:58:13;2.87;;;1.37;;
3563;SDS011;1796;52.388;13.096;2023-04-24T11:00:43;1.30;;;1.30;;
3563;SDS011;1796;52.388;13.096;2023-04-24T11:03:23;4.53;;;1.60;;
3563;SDS011;1796;52.388;13.096;2023-04-24T11:05:53;5.57;;;1.63;;
3563;SDS011;1796;52.388;13.096;2023-04-24T11:08:25;1.60;;;1.07;;
3563;SDS011;1796;52.388;13.096;2023-04-24T11:10:55;4.97;;;2.30;;
3563;SDS011;1796;52.388;13.096;2023-04-24T11:13:24;2.40;;;1.50;;
3563;SDS011;1796;52.388;13.096;2023-04-24T11:18:49;1.53;;;1.43;;
3563;SDS011;1796;52.388;13.096;2023-04-24T11:21:19;2.60;;;1.60;;
3563;SDS011;1796;52.388;13.096;2023-04-24T11:23:48;1.13;;;1.03;;
3563;SDS011;1796;52.388;13.096;2023-04-24T11:26:17;1.33;;;0.97;;
3563;SDS011;1796;52.388;13.096;2023-04-24T11:28:48;2.20;;;1.10;;
3563;SDS011;1796;52.388;13.096;2023-04-24T11:31:36;1.03;;;1.00;;
3563;SDS011;1796;52.388;13.096;2023-04-24T11:34:08;1.13;;;1.13;;
3563;SDS011;1796;52.388;13.096;2023-04-24T11:36:37;2.23;;;1.37;;
3563;SDS011;1796;52.388;13.096;2023-04-24T11:39:05;4.10;;;1.50;;
3563;SDS011;1796;52.388;13.096;2023-04-24T11:41:33;0.90;;;0.80;;
3563;SDS011;1796;52.388;13.096;2023-04-24T11:44:00;1.00;;;1.00;;
3563;SDS011;1796;52.388;13.096;2023-04-24T11:46:28;0.80;;;0.80;;
3563;SDS011;1796;52.388;13.096;2023-04-24T11:48:58;1.10;;;0.83;;
3563;SDS011;1796;52.388;13.096;2023-04-24T11:51:26;1.17;;;1.00;;
3563;SDS011;1796;52.388;13.096;2023-04-24T11:53:53;2.03;;;1.53;;
3563;SDS011;1796;52.388;13.096;2023-04-24T11:56:21;10.13;;;1.63;;
3563;SDS011;1796;52.388;13.096;2023-04-24T11:58:48;3.30;;;0.93;;
3563;SDS011;1796;52.388;13.096;2023-04-24T12:01:14;1.23;;;0.90;;
3563;SDS011;1796;52.388;13.096;2023-04-24T12:03:43;4.77;;;1.07;;
3563;SDS011;1796;52.388;13.096;2023-04-24T12:06:16;0.70;;;0.70;;
3563;SDS011;1796;52.388;13.096;2023-04-24T12:08:45;0.73;;;0.73;;
3563;SDS011;1796;52.388;13.096;2023-04-24T12:11:14;2.23;;;1.00;;
3563;SDS011;1796;52.388;13.096;2023-04-24T12:13:42;0.80;;;0.80;;
3563;SDS011;1796;52.388;13.096;2023-04-24T12:16:09;2.03;;;0.80;;
3563;SDS011;1796;52.388;13.096;2023-04-24T12:26:08;1.17;;;0.90;;
3563;SDS011;1796;52.388;13.096;2023-04-24T12:32:15;4.63;;;0.90;;
3563;SDS011;1796;52.388;13.096;2023-04-24T12:34:43;0.83;;;0.83;;
3563;SDS011;1796;52.388;13.096;2023-04-24T12:37:10;2.53;;;1.20;;
3563;SDS011;1796;52.388;13.096;2023-04-24T12:39:37;4.93;;;1.20;;
3563;SDS011;1796;52.388;13.096;2023-04-24T12:42:05;1.40;;;1.00;;
3563;SDS011;1796;52.388;13.096;2023-04-24T12:44:33;3.90;;;0.93;;
3563;SDS011;1796;52.388;13.096;2023-04-24T12:47:02;2.97;;;1.00;;
3563;SDS011;1796;52.388;13.096;2023-04-24T12:49:29;0.83;;;0.83;;
3563;SDS011;1796;52.388;13.096;2023-04-24T12:51:56;3.40;;;0.97;;
3563;SDS011;1796;52.388;13.096;2023-04-24T12:54:23;0.90;;;0.90;;
3563;SDS011;1796;52.388;13.096;2023-04-24T12:56:50;0.93;;;0.93;;
3563;SDS011;1796;52.388;13.096;2023-04-24T12:59:18;0.73;;;0.63;;
3563;SDS011;1796;52.388;13.096;2023-04-24T13:01:45;0.80;;;0.80;;
3563;SDS011;1796;52.388;13.096;2023-04-24T13:04:12;5.33;;;0.83;;
3563;SDS011;1796;52.388;13.096;2023-04-24T13:06:39;3.63;;;1.10;;
3563;SDS011;1796;52.388;13.096;2023-04-24T13:09:06;1.23;;;1.00;;
3563;SDS011;1796;52.388;13.096;2023-04-24T13:11:33;1.37;;;0.90;;
3563;SDS011;1796;52.388;13.096;2023-04-24T13:14:00;10.87;;;0.87;;
3563;SDS011;1796;52.388;13.096;2023-04-24T13:16:28;0.80;;;0.80;;
3563;SDS011;1796;52.388;13.096;2023-04-24T13:18:55;1.00;;;0.80;;
3563;SDS011;1796;52.388;13.096;2023-04-24T13:21:22;2.87;;;1.00;;
3563;SDS011;1796;52.388;13.096;2023-04-24T13:23:49;1.13;;;1.03;;
3563;SDS011;1796;52.388;13.096;2023-04-24T13:26:16;6.20;;;0.90;;
3563;SDS011;1796;52.388;13.096;2023-04-24T13:28:43;2.53;;;1.20;;
3563;SDS011;1796;52.388;13.096;2023-04-24T13:31:10;1.63;;;0.90;;
3563;SDS011;1796;52.388;13.096;2023-04-24T13:33:40;0.90;;;0.90;;
3563;SDS011;1796;52.388;13.096;2023-04-24T13:36:07;1.03;;;1.03;;
3563;SDS011;1796;52.388;13.096;2023-04-24T13:38:34;1.00;;;0.90;;
3563;SDS011;1796;52.388;13.096;2023-04-24T13:41:01;7.20;;;1.47;;
3563;SDS011;1796;52.388;13.096;2023-04-24T13:43:28;2.67;;;1.10;;
3563;SDS011;1796;52.388;13.096;2023-04-24T13:45:54;0.87;;;0.87;;
3563;SDS011;1796;52.388;13.096;2023-04-24T13:48:21;1.17;;;0.90;;
3563;SDS011;1796;52.388;13.096;2023-04-24T13:50:50;0.73;;;0.73;;
3563;SDS011;1796;52.388;13.096;2023-04-24T13:53:16;1.10;;;1.10;;
3563;SDS011;1796;52.388;13.096;2023-04-24T13:55:43;8.70;;;1.27;;
3563;SDS011;1796;52.388;13.096;2023-04-24T13:58:10;2.07;;;0.90;;
3563;SDS011;1796;52.388;13.096;2023-04-24T14:00:37;1.13;;;0.83;;
3563;SDS011;1796;52.388;13.096;2023-04-24T14:03:04;1.67;;;0.90;;
3563;SDS011;1796;52.388;13.096;2023-04-24T14:05:31;0.97;;;0.97;;
3563;SDS011;1796;52.388;13.096;2023-04-24T14:07:59;0.90;;;0.90;;
3563;SDS011;1796;52.388;13.096;2023-04-24T14:10:26;1.10;;;1.00;;
3563;SDS011;1796;52.388;13.096;2023-04-24T14:12:53;2.10;;;1.93;;
3563;SDS011;1796;52.388;13.096;2023-04-24T14:15:20;1.30;;;0.93;;
3563;SDS011;1796;52.388;13.096;2023-04-24T14:17:47;1.30;;;1.20;;
3563;SDS011;1796;52.388;13.096;2023-04-24T14:20:15;0.90;;;0.90;;
3563;SDS011;1796;52.388;13.096;2023-04-24T14:22:41;1.10;;;1.10;;
3563;SDS011;1796;52.388;13.096;2023-04-24T14:25:10;0.90;;;0.90;;
3563;SDS011;1796;52.388;13.096;2023-04-24T14:27:37;2.30;;;1.00;;
3563;SDS011;1796;52.388;13.096;2023-04-24T14:30:05;0.97;;;0.97;;
3563;SDS011;1796;52.388;13.096;2023-04-24T14:32:33;3.70;;;1.13;;
3563;SDS011;1796;52.388;13.096;2023-04-24T14:35:01;1.40;;;1.30;;
3563;SDS011;1796;52.388;13.096;2023-04-24T14:37:27;14.93;;;1.13;;
3563;SDS011;1796;52.388;13.096;2023-04-24T14:39:55;1.30;;;1.10;;
3563;SDS011;1796;52.388;13.096;2023-04-24T14:42:23;0.80;;;0.80;;
3563;SDS011;1796;52.388;13.096;2023-04-24T14:44:50;1.50;;;1.27;;
3563;SDS011;1796;52.388;13.096;2023-04-24T14:47:17;1.40;;;1.27;;
3563;SDS011;1796;52.388;13.096;2023-04-24T14:49:46;6.13;;;1.10;;
3563;SDS011;1796;52.388;13.096;2023-04-24T14:52:13;2.77;;;1.00;;
3563;SDS011;1796;52.388;13.096;2023-04-24T14:54:41;1.07;;;0.97;;
3563;SDS011;1796;52.388;13.096;2023-04-24T14:57:08;2.73;;;1.13;;
3563;SDS011;1796;52.388;13.096;2023-04-24T14:59:37;1.07;;;1.07;;
3563;SDS011;1796;52.388;13.096;2023-04-24T15:02:05;8.43;;;1.27;;
3563;SDS011;1796;52.388;13.096;2023-04-24T15:04:32;3.57;;;1.90;;
3563;SDS011;1796;52.388;13.096;2023-04-24T15:06:59;8.63;;;1.40;;
3563;SDS011;1796;52.388;13.096;2023-04-24T15:09:26;2.00;;;1.40;;
3563;SDS011;1796;52.388;13.096;2023-04-24T15:11:53;1.13;;;1.03;;
3563;SDS011;1796;52.388;13.096;2023-04-24T15:14:20;3.30;;;0.93;;
3563;SDS011;1796;52.388;13.096;2023-04-24T15:16:48;2.70;;;1.23;;